Time;durP1;ratioP1;P1;durP2;ratioP2;P2;SDS_P1;SDS_P2;PMS_P1;PMS_P2;Temp;Humidity;BMP_temperature;BMP_pressure;BME280_temperature;BME280_humidity;BME280_pressure;Samples;Min_cycle;Max_cycle;Signal;HPM_P1;HPM_P2
2024/01/27 00:02:13;;;;;;;1.30;0.45;;;5.80;1.00;;;;;;5080803;28;20487;-59
2024/01/27 00:04:40;;;;;;;1.00;0.40;;;5.80;99.90;;;;;;5079558;28;20440;-60
2024/01/27 00:07:07;;;;;;;1.20;0.43;;;5.70;99.90;;;;;;5083705;28;20457;-59
2024/01/27 00:09:34;;;;;;;1.50;0.50;;;5.60;1.00;;;;;;5079020;28;20437;-60
2024/01/27 00:12:03;;;;;;;1.60;0.50;;;5.60;1.00;;;;;;5082743;28;20437;-59
2024/01/27 00:14:30;;;;;;;1.83;0.40;;;5.60;1.00;;;;;;5079270;28;20435;-59
2024/01/27 00:16:57;;;;;;;0.70;0.40;;;5.50;1.00;;;;;;5081819;28;20701;-58
2024/01/27 00:19:24;;;;;;;1.50;0.40;;;5.50;99.90;;;;;;5081461;28;20442;-59
2024/01/27 00:21:51;;;;;;;0.95;0.30;;;5.50;99.90;;;;;;5081992;28;20427;-59
2024/01/27 00:24:18;;;;;;;0.70;0.30;;;5.50;1.00;;;;;;5083537;28;20991;-59
2024/01/27 00:26:45;;;;;;;1.23;0.40;;;5.50;1.00;;;;;;5087609;28;20961;-59
2024/01/27 00:29:14;;;;;;;0.93;0.32;;;5.50;99.90;;;;;;5084134;28;20431;-59
2024/01/27 00:31:41;;;;;;;1.00;0.40;;;5.40;1.00;;;;;;5081785;28;20443;-60
2024/01/27 00:34:08;;;;;;;0.82;0.40;;;5.10;99.90;;;;;;5082332;28;20422;-60
2024/01/27 00:36:36;;;;;;;0.90;0.40;;;5.00;99.90;;;;;;5081611;28;20445;-60
2024/01/27 00:39:04;;;;;;;1.48;0.40;;;5.00;1.00;;;;;;5080629;28;20732;-59
2024/01/27 00:41:31;;;;;;;1.30;0.40;;;4.90;1.00;;;;;;5080906;28;20435;-59
2024/01/27 00:43:58;;;;;;;1.70;0.40;;;4.90;1.00;;;;;;5079323;28;20450;-59
2024/01/27 00:46:27;;;;;;;1.90;0.30;;;4.90;1.00;;;;;;5080939;28;20704;-59
2024/01/27 00:48:54;;;;;;;0.80;0.30;;;4.90;99.90;;;;;;5082061;28;20500;-59
2024/01/27 00:51:21;;;;;;;1.55;0.40;;;4.80;99.90;;;;;;5083422;28;20706;-59
2024/01/27 00:53:48;;;;;;;1.40;0.30;;;4.80;27.90;;;;;;5081921;28;20418;-59
2024/01/27 00:56:15;;;;;;;2.10;0.40;;;4.80;1.00;;;;;;5081963;28;20530;-58
2024/01/27 00:58:42;;;;;;;2.15;0.40;;;4.70;1.00;;;;;;5082772;28;20468;-59
2024/01/27 01:01:09;;;;;;;2.08;0.32;;;4.60;1.00;;;;;;5083205;28;20880;-60
2024/01/27 01:03:37;;;;;;;0.85;0.40;;;4.50;1.00;;;;;;5080108;28;20423;-60
2024/01/27 01:06:04;;;;;;;0.70;0.30;;;4.50;99.90;;;;;;5080844;28;20417;-58
2024/01/27 01:08:32;;;;;;;1.90;0.50;;;4.50;99.90;;;;;;5080679;28;20429;-59
2024/01/27 01:10:59;;;;;;;0.60;0.40;;;4.60;99.90;;;;;;5083127;28;20839;-58
2024/01/27 01:13:26;;;;;;;1.02;0.40;;;4.80;99.90;;;;;;5080488;28;20832;-60
2024/01/27 01:15:53;;;;;;;1.63;0.43;;;4.90;99.90;;;;;;5082136;28;20429;-59
2024/01/27 01:18:20;;;;;;;1.40;0.40;;;5.00;1.00;;;;;;5079716;28;20418;-58
2024/01/27 01:20:49;;;;;;;0.60;0.30;;;4.80;1.00;;;;;;5076786;28;20446;-59
2024/01/27 01:23:16;;;;;;;2.00;0.40;;;4.70;1.00;;;;;;5079625;28;20435;-59
2024/01/27 01:25:44;;;;;;;0.90;0.40;;;4.60;1.00;;;;;;5079099;28;20795;-59
2024/01/27 01:28:11;;;;;;;0.90;0.40;;;4.50;1.00;;;;;;5079149;28;20874;-59
2024/01/27 01:30:38;;;;;;;0.93;0.50;;;4.40;99.90;;;;;;5079398;28;20433;-59
2024/01/27 01:33:05;;;;;;;0.90;0.40;;;4.40;99.90;;;;;;5079640;28;20434;-58
2024/01/27 01:35:32;;;;;;;3.00;0.50;;;4.30;99.90;;;;;;5078445;28;20499;-60
2024/01/27 01:38:01;;;;;;;1.17;0.40;;;4.30;99.90;;;;;;5079991;28;20493;-58
2024/01/27 01:40:27;;;;;;;0.80;0.40;;;4.20;1.00;;;;;;5079079;28;20439;-59
2024/01/27 01:42:54;;;;;;;0.88;0.50;;;4.20;99.90;;;;;;5079910;28;20451;-59
2024/01/27 01:45:21;;;;;;;1.50;0.40;;;4.30;99.90;;;;;;5078482;28;20556;-59
2024/01/27 01:47:49;;;;;;;0.70;0.40;;;4.20;99.90;;;;;;5080589;28;20427;-57
2024/01/27 01:50:16;;;;;;;1.70;0.40;;;4.10;99.90;;;;;;5079521;28;20517;-59
2024/01/27 01:52:43;;;;;;;0.70;0.40;;;4.10;1.00;;;;;;5080479;28;20438;-59
2024/01/27 01:55:11;;;;;;;1.30;0.40;;;4.10;1.00;;;;;;5080922;28;20508;-58
2024/01/27 01:57:39;;;;;;;1.17;0.35;;;4.10;1.00;;;;;;5080790;28;20809;-59
2024/01/27 02:00:07;;;;;;;0.50;0.30;;;4.10;1.00;;;;;;5076964;28;20411;-58
2024/01/27 02:02:34;;;;;;;1.30;0.40;;;4.00;1.00;;;;;;5082296;28;20955;-59
2024/01/27 02:05:01;;;;;;;1.07;0.50;;;4.00;1.00;;;;;;5082698;28;20497;-58
2024/01/27 02:07:28;;;;;;;1.00;0.40;;;4.10;1.00;;;;;;5085165;28;20439;-57
2024/01/27 02:09:55;;;;;;;2.20;0.40;;;4.00;1.00;;;;;;5084101;28;20429;-59
2024/01/27 02:12:24;;;;;;;0.80;0.40;;;4.00;1.00;;;;;;5085582;28;20479;-59
2024/01/27 02:14:51;;;;;;;0.70;0.35;;;4.00;1.00;;;;;;5083321;28;20425;-58
2024/01/27 02:17:18;;;;;;;1.33;0.30;;;4.00;1.00;;;;;;5085099;28;20442;-58
2024/01/27 02:19:45;;;;;;;1.35;0.40;;;4.10;1.00;;;;;;5088065;28;20439;-60
2024/01/27 02:22:12;;;;;;;1.00;0.40;;;4.10;1.00;;;;;;5083739;28;20422;-59
2024/01/27 02:24:40;;;;;;;0.60;0.40;;;4.00;99.90;;;;;;5084140;28;20431;-59
2024/01/27 02:27:07;;;;;;;0.80;0.40;;;4.10;1.00;;;;;;5084493;28;20476;-59
2024/01/27 02:29:34;;;;;;;0.90;0.40;;;4.10;1.00;;;;;;5083557;28;20745;-58
2024/01/27 02:32:01;;;;;;;0.60;0.40;;;4.30;1.00;;;;;;5083744;28;20767;-61
2024/01/27 02:34:28;;;;;;;2.30;0.40;;;4.40;1.00;;;;;;5084365;28;20993;-60
2024/01/27 02:36:55;;;;;;;0.80;0.30;;;4.40;99.90;;;;;;5085909;28;20434;-59
2024/01/27 02:39:22;;;;;;;1.70;0.40;;;4.30;99.90;;;;;;5081766;28;20488;-59
2024/01/27 02:41:50;;;;;;;0.60;0.40;;;4.20;99.90;;;;;;5084727;28;20436;-59
2024/01/27 02:44:17;;;;;;;0.90;0.40;;;4.00;99.90;;;;;;5085006;28;20438;-59
2024/01/27 02:46:44;;;;;;;1.10;0.40;;;4.00;1.00;;;;;;5085040;28;20425;-58
2024/01/27 02:49:11;;;;;;;1.00;0.40;;;4.00;99.90;;;;;;5084565;28;20514;-58
2024/01/27 02:51:38;;;;;;;1.40;0.40;;;4.00;99.90;;;;;;5083597;28;20428;-58
2024/01/27 02:54:05;;;;;;;1.17;0.40;;;4.00;1.00;;;;;;5084759;28;20480;-58
2024/01/27 02:56:32;;;;;;;0.70;0.40;;;4.00;1.00;;;;;;5082519;28;20431;-59
2024/01/27 02:59:01;;;;;;;1.10;0.40;;;4.00;1.00;;;;;;5082683;28;20454;-59
2024/01/27 03:01:28;;;;;;;1.60;0.40;;;4.10;1.00;;;;;;5083376;28;20488;-59
2024/01/27 03:03:55;;;;;;;1.50;0.40;;;4.10;1.00;;;;;;5083577;28;20420;-60
2024/01/27 03:06:22;;;;;;;1.33;0.50;;;4.20;1.00;;;;;;5081961;28;20431;-59
2024/01/27 03:08:49;;;;;;;0.88;0.38;;;4.20;99.90;;;;;;5084565;28;20428;-59
2024/01/27 03:11:16;;;;;;;1.17;0.40;;;4.10;99.90;;;;;;5081268;28;20495;-59
2024/01/27 03:13:45;;;;;;;2.70;0.40;;;4.00;99.90;;;;;;5083603;28;20430;-59
2024/01/27 03:16:14;;;;;;;1.95;0.40;;;3.90;1.00;;;;;;5082789;28;20863;-60
2024/01/27 03:18:41;;;;;;;0.57;0.30;;;3.70;99.90;;;;;;5083129;28;20430;-59
2024/01/27 03:21:08;;;;;;;0.70;0.40;;;3.50;99.90;;;;;;5080236;28;20438;-59
2024/01/27 03:23:36;;;;;;;0.80;0.40;;;3.50;99.90;;;;;;5082659;28;20857;-58
2024/01/27 03:26:04;;;;;;;1.20;0.40;;;3.40;1.00;;;;;;5083389;28;20433;-59
2024/01/27 03:28:31;;;;;;;1.92;0.45;;;3.40;1.00;;;;;;5078897;28;20439;-59
2024/01/27 03:30:59;;;;;;;1.65;0.40;;;3.50;1.00;;;;;;5081967;28;20492;-59
2024/01/27 03:33:30;;;;;;;1.98;0.40;;;3.60;1.00;;;;;;5079336;28;20466;-58
2024/01/27 03:35:57;;;;;;;1.55;0.40;;;3.70;1.00;;;;;;5082548;28;20437;-58
2024/01/27 03:38:25;;;;;;;1.60;0.40;;;3.80;1.00;;;;;;5080590;28;20438;-59
2024/01/27 03:40:52;;;;;;;2.60;0.50;;;3.70;1.00;;;;;;5080484;28;20444;-58
2024/01/27 03:43:19;;;;;;;0.68;0.38;;;3.80;1.00;;;;;;5082865;28;20424;-58
2024/01/27 03:45:46;;;;;;;1.70;0.40;;;3.70;1.00;;;;;;5082451;28;20438;-58
2024/01/27 03:48:14;;;;;;;1.30;0.50;;;3.70;1.00;;;;;;5084887;28;20442;-59
2024/01/27 03:50:42;;;;;;;0.70;0.40;;;3.70;1.00;;;;;;5086604;28;20742;-57
2024/01/27 03:53:09;;;;;;;1.50;0.50;;;3.70;1.00;;;;;;5088036;28;20771;-59
2024/01/27 03:55:36;;;;;;;1.20;0.40;;;3.70;1.00;;;;;;5086248;28;20430;-59
2024/01/27 03:58:04;;;;;;;2.50;0.50;;;3.70;1.00;;;;;;5091434;28;21005;-58
2024/01/27 04:00:32;;;;;;;3.20;0.43;;;3.70;1.00;;;;;;5086895;28;20466;-56
2024/01/27 04:03:00;;;;;;;1.73;0.50;;;3.70;1.00;;;;;;5084369;28;20437;-58
2024/01/27 04:05:28;;;;;;;3.80;0.50;;;3.70;1.00;;;;;;5087813;28;20438;-59
2024/01/27 04:07:56;;;;;;;1.35;0.50;;;3.70;1.00;;;;;;5092069;28;20808;-57
2024/01/27 04:10:24;;;;;;;2.30;0.40;;;3.60;1.00;;;;;;5078414;28;20431;-58
2024/01/27 04:12:51;;;;;;;1.17;0.50;;;3.60;99.90;;;;;;5082729;28;20430;-58
2024/01/27 04:15:18;;;;;;;2.70;0.40;;;3.60;1.00;;;;;;5087724;28;21020;-57
2024/01/27 04:17:45;;;;;;;0.90;0.50;;;3.60;1.00;;;;;;5083249;28;20430;-57
2024/01/27 04:20:13;;;;;;;1.50;0.43;;;3.50;1.00;;;;;;5074197;28;20525;-58
2024/01/27 04:22:40;;;;;;;1.40;0.50;;;3.50;1.00;;;;;;5076184;28;20446;-59
2024/01/27 04:25:09;;;;;;;3.10;0.40;;;3.60;1.00;;;;;;5083894;28;20808;-57
2024/01/27 04:27:39;;;;;;;0.70;0.40;;;3.50;1.00;;;;;;5080983;28;20483;-59
2024/01/27 04:30:06;;;;;;;3.13;0.50;;;3.60;1.00;;;;;;5090274;28;20438;-59
2024/01/27 04:32:34;;;;;;;1.25;0.40;;;3.60;1.00;;;;;;5078362;28;20463;-57
2024/01/27 04:35:01;;;;;;;0.70;0.40;;;3.60;1.00;;;;;;5080925;28;20529;-58
2024/01/27 04:37:28;;;;;;;1.00;0.40;;;3.70;1.00;;;;;;5089296;28;20437;-59
2024/01/27 04:39:55;;;;;;;1.95;0.50;;;3.80;1.00;;;;;;5085343;28;20447;-58
2024/01/27 04:42:23;;;;;;;0.73;0.40;;;3.70;1.00;;;;;;5091377;28;20542;-57
2024/01/27 04:44:50;;;;;;;2.83;0.40;;;3.70;99.90;;;;;;5084972;28;20697;-58
2024/01/27 04:47:17;;;;;;;1.40;0.40;;;3.60;99.90;;;;;;5076142;28;20443;-57
2024/01/27 04:49:44;;;;;;;1.55;0.40;;;3.60;99.90;;;;;;5081719;28;20441;-58
2024/01/27 04:52:11;;;;;;;3.85;0.55;;;3.50;1.00;;;;;;5091629;28;20483;-58
2024/01/27 04:54:38;;;;;;;1.10;0.60;;;3.50;1.00;;;;;;5088393;28;20451;-58
2024/01/27 04:57:06;;;;;;;2.20;0.50;;;3.40;1.00;;;;;;5086749;28;20449;-58
2024/01/27 04:59:34;;;;;;;0.98;0.40;;;3.40;1.00;;;;;;5083455;28;20463;-57
2024/01/27 05:02:01;;;;;;;1.20;0.40;;;3.40;1.00;;;;;;5082515;28;20921;-58
2024/01/27 05:04:28;;;;;;;2.45;0.70;;;3.40;1.00;;;;;;5091112;28;20509;-57
2024/01/27 05:06:55;;;;;;;1.80;0.50;;;3.40;1.00;;;;;;5084819;28;20878;-58
2024/01/27 05:09:22;;;;;;;2.90;0.50;;;3.40;1.00;;;;;;5079834;28;20498;-57
2024/01/27 05:11:51;;;;;;;1.30;0.40;;;3.50;1.00;;;;;;5083003;28;20437;-60
2024/01/27 05:14:18;;;;;;;2.50;0.40;;;3.60;1.00;;;;;;5084870;28;20879;-56
2024/01/27 05:16:47;;;;;;;1.35;0.43;;;3.70;1.00;;;;;;5077334;28;20430;-57
2024/01/27 05:19:16;;;;;;;1.70;0.50;;;3.70;1.00;;;;;;5080441;28;20943;-58
2024/01/27 05:21:43;;;;;;;1.30;0.50;;;3.50;1.00;;;;;;5076017;28;20498;-57
2024/01/27 05:24:11;;;;;;;0.80;0.40;;;3.50;1.00;;;;;;5080358;28;20447;-57
2024/01/27 05:26:38;;;;;;;0.70;0.40;;;3.40;1.00;;;;;;5083434;28;20726;-56
2024/01/27 05:29:05;;;;;;;2.80;0.40;;;3.40;1.00;;;;;;5081627;28;20437;-58
2024/01/27 05:31:32;;;;;;;1.20;0.40;;;3.30;1.00;;;;;;5080041;28;20447;-58
2024/01/27 05:34:00;;;;;;;0.80;0.50;;;3.20;1.00;;;;;;5083554;28;20439;-53
2024/01/27 05:36:27;;;;;;;0.80;0.40;;;3.30;1.00;;;;;;5077485;28;20463;-54
2024/01/27 05:38:54;;;;;;;2.25;0.50;;;4.00;1.00;;;;;;5089462;28;20442;-53
2024/01/27 05:41:21;;;;;;;0.95;0.40;;;4.40;1.00;;;;;;5084430;28;20450;-54
2024/01/27 05:43:48;;;;;;;0.82;0.40;;;4.50;99.90;;;;;;5093925;28;20438;-57
2024/01/27 05:46:15;;;;;;;0.90;0.30;;;4.10;1.00;;;;;;5090251;28;20691;-57
2024/01/27 05:48:42;;;;;;;1.00;0.40;;;4.00;1.00;;;;;;5082360;28;20442;-56
2024/01/27 05:51:12;;;;;;;2.63;0.40;;;3.80;1.00;;;;;;5095673;28;20471;-57
2024/01/27 05:53:39;;;;;;;1.20;0.40;;;3.50;1.00;;;;;;5076725;28;20427;-55
2024/01/27 05:56:06;;;;;;;1.40;0.50;;;3.20;99.90;;;;;;5081914;28;20417;-55
2024/01/27 05:58:33;;;;;;;1.58;0.43;;;3.10;99.90;;;;;;5088402;28;20493;-57
2024/01/27 06:01:00;;;;;;;0.70;0.40;;;2.90;1.00;;;;;;5075605;28;20415;-56
2024/01/27 06:03:27;;;;;;;1.27;0.50;;;2.80;1.00;;;;;;5087436;28;20486;-57
2024/01/27 06:05:54;;;;;;;2.70;0.50;;;2.70;1.00;;;;;;5083519;28;20434;-57
2024/01/27 06:08:23;;;;;;;1.30;0.40;;;2.70;1.00;;;;;;5094711;28;20421;-56
2024/01/27 06:10:50;;;;;;;1.58;0.50;;;2.70;1.00;;;;;;5094231;28;20425;-56
2024/01/27 06:13:17;;;;;;;1.40;0.45;;;2.70;1.00;;;;;;5093609;28;20811;-57
2024/01/27 06:15:45;;;;;;;0.68;0.40;;;2.70;1.00;;;;;;5094800;28;20422;-57
2024/01/27 06:18:13;;;;;;;1.73;0.50;;;2.80;1.00;;;;;;5093908;28;20908;-57
2024/01/27 06:20:40;;;;;;;2.80;0.50;;;2.90;1.00;;;;;;5090621;28;20823;-58
2024/01/27 06:23:07;;;;;;;1.70;0.50;;;2.90;1.00;;;;;;5089126;28;20853;-57
2024/01/27 06:25:36;;;;;;;1.10;0.50;;;2.90;1.00;;;;;;5087854;28;20440;-58
2024/01/27 06:28:03;;;;;;;2.10;0.60;;;3.00;1.00;;;;;;5084207;28;20663;-57
2024/01/27 06:30:30;;;;;;;1.70;0.50;;;2.90;1.00;;;;;;5093349;28;20707;-57
2024/01/27 06:32:57;;;;;;;1.33;0.50;;;2.80;1.00;;;;;;5088382;28;20454;-55
2024/01/27 06:35:25;;;;;;;2.30;0.50;;;2.70;1.00;;;;;;5087597;28;20508;-53
2024/01/27 06:37:52;;;;;;;1.70;0.50;;;2.90;1.00;;;;;;5092352;28;20974;-54
2024/01/27 06:40:19;;;;;;;1.00;0.50;;;3.10;1.00;;;;;;5088810;28;20434;-55
2024/01/27 06:42:48;;;;;;;1.50;0.50;;;3.20;1.00;;;;;;5085869;28;20445;-56
2024/01/27 06:45:15;;;;;;;3.70;0.60;;;3.20;1.00;;;;;;5086749;28;20442;-57
2024/01/27 06:47:42;;;;;;;2.10;0.40;;;3.10;1.00;;;;;;5087889;28;20750;-56
2024/01/27 06:50:10;;;;;;;1.40;0.50;;;3.20;1.00;;;;;;5090103;28;20489;-53
2024/01/27 06:52:37;;;;;;;2.40;0.50;;;3.50;1.00;;;;;;5090322;28;20442;-55
2024/01/27 06:55:06;;;;;;;1.67;0.60;;;4.30;1.00;;;;;;5083413;28;20439;-56
2024/01/27 06:57:33;;;;;;;0.83;0.50;;;4.60;1.00;;;;;;5088444;28;20438;-57
2024/01/27 07:00:02;;;;;;;3.45;0.60;;;4.50;99.90;;;;;;5091217;28;20442;-54
2024/01/27 07:02:31;;;;;;;0.90;0.50;;;4.40;99.90;;;;;;5074171;28;20445;-57
2024/01/27 07:04:58;;;;;;;0.73;0.40;;;4.10;1.00;;;;;;5091544;28;20895;-56
2024/01/27 07:07:27;;;;;;;0.80;0.50;;;3.80;1.00;;;;;;5091355;28;20437;-56
2024/01/27 07:09:55;;;;;;;1.30;0.50;;;3.50;1.00;;;;;;5090629;28;20437;-56
2024/01/27 07:12:22;;;;;;;1.30;0.50;;;3.40;99.90;;;;;;5079130;28;20446;-55
2024/01/27 07:14:51;;;;;;;3.40;0.60;;;3.30;99.90;;;;;;5089964;28;20434;-53
2024/01/27 07:17:19;;;;;;;2.40;0.60;;;3.20;1.00;;;;;;5091004;28;20465;-59
2024/01/27 07:19:46;;;;;;;1.15;0.50;;;3.10;1.00;;;;;;5088534;28;20434;-55
2024/01/27 07:22:13;;;;;;;1.70;0.50;;;3.10;1.00;;;;;;5079025;28;20777;-55
2024/01/27 07:24:41;;;;;;;1.30;0.50;;;3.00;1.00;;;;;;5085687;28;20494;-55
2024/01/27 07:27:08;;;;;;;1.20;0.50;;;3.00;1.00;;;;;;5087441;28;20442;-57
2024/01/27 07:29:35;;;;;;;2.25;0.50;;;3.00;1.00;;;;;;5087347;28;20521;-55
2024/01/27 07:32:03;;;;;;;2.30;0.60;;;2.90;1.00;;;;;;5080914;28;20815;-56
2024/01/27 07:34:31;;;;;;;1.50;0.50;;;2.90;1.00;;;;;;5082773;28;20439;-57
2024/01/27 07:36:58;;;;;;;1.70;0.60;;;2.80;1.00;;;;;;5081160;28;20483;-51
2024/01/27 07:39:25;;;;;;;1.60;0.50;;;2.80;1.00;;;;;;5090135;28;20441;-55
2024/01/27 07:41:52;;;;;;;1.40;0.60;;;2.80;1.00;;;;;;5091746;28;20433;-53
2024/01/27 07:44:19;;;;;;;1.63;0.70;;;2.80;1.00;;;;;;5088686;28;20446;-50
2024/01/27 07:46:46;;;;;;;1.42;0.60;;;2.90;1.00;;;;;;5090841;28;20429;-55
2024/01/27 07:49:15;;;;;;;3.30;0.60;;;3.00;1.00;;;;;;5091248;28;20418;-55
2024/01/27 07:51:43;;;;;;;2.65;0.50;;;3.00;1.00;;;;;;5083243;28;20451;-54
2024/01/27 07:54:10;;;;;;;2.30;0.60;;;3.10;1.00;;;;;;5087556;28;20438;-56
2024/01/27 07:56:38;;;;;;;2.60;0.60;;;3.10;1.00;;;;;;5082400;28;20445;-56
2024/01/27 07:59:05;;;;;;;2.90;0.80;;;3.20;1.00;;;;;;5078791;28;20471;-52
2024/01/27 08:01:32;;;;;;;1.73;0.70;;;3.20;1.00;;;;;;5088432;28;20910;-54
2024/01/27 08:03:59;;;;;;;2.05;0.60;;;3.30;1.00;;;;;;5084930;28;20696;-57
2024/01/27 08:06:30;;;;;;;2.05;0.60;;;3.10;1.00;;;;;;5088234;28;20433;-57
2024/01/27 08:08:59;;;;;;;2.03;0.70;;;3.20;1.00;;;;;;5083602;28;20536;-57
2024/01/27 08:11:26;;;;;;;1.88;0.60;;;3.30;1.00;;;;;;5087132;28;20802;-57
2024/01/27 08:13:53;;;;;;;0.80;0.50;;;3.40;1.00;;;;;;5084715;28;20431;-56
2024/01/27 08:16:21;;;;;;;2.60;0.70;;;3.50;1.00;;;;;;5082747;28;20442;-54
2024/01/27 08:18:48;;;;;;;1.63;0.70;;;3.60;1.00;;;;;;5079264;28;20509;-54
2024/01/27 08:21:15;;;;;;;1.00;0.60;;;3.70;1.00;;;;;;5089176;28;20432;-55
2024/01/27 08:23:42;;;;;;;0.90;0.70;;;3.70;1.00;;;;;;5086416;28;20535;-55
2024/01/27 08:26:11;;;;;;;2.42;0.75;;;3.60;1.00;;;;;;5081335;28;20455;-56
2024/01/27 08:28:38;;;;;;;2.08;0.70;;;3.60;1.00;;;;;;5090238;28;20550;-57
2024/01/27 08:31:05;;;;;;;2.00;0.70;;;3.50;1.00;;;;;;5086928;28;20517;-56
2024/01/27 08:33:32;;;;;;;1.00;0.60;;;3.60;1.00;;;;;;5080374;28;20439;-57
2024/01/27 08:35:59;;;;;;;2.75;1.13;;;3.60;99.90;;;;;;5087083;28;20438;-57
2024/01/27 08:38:26;;;;;;;24.92;14.52;;;3.60;99.90;;;;;;5086332;28;20445;-57
2024/01/27 08:40:53;;;;;;;6.57;2.17;;;3.50;99.90;;;;;;5082063;28;20437;-58
2024/01/27 08:43:21;;;;;;;2.10;0.80;;;3.60;1.00;;;;;;5088345;28;20460;-56
2024/01/27 08:45:48;;;;;;;2.00;0.70;;;3.90;1.00;;;;;;5087502;28;20850;-55
2024/01/27 08:48:16;;;;;;;2.83;0.70;;;4.20;99.90;;;;;;5088788;28;20429;-58
2024/01/27 08:50:43;;;;;;;1.50;0.70;;;4.20;99.90;;;;;;5081069;28;20445;-56
2024/01/27 08:53:10;;;;;;;2.60;0.70;;;4.40;1.00;;;;;;5088098;28;20545;-58
2024/01/27 08:55:37;;;;;;;2.10;0.70;;;4.30;1.00;;;;;;5076741;28;20431;-58
2024/01/27 08:58:05;;;;;;;1.50;0.80;;;4.30;1.00;;;;;;5086073;28;20447;-56
2024/01/27 09:00:33;;;;;;;2.30;0.70;;;4.40;1.00;;;;;;5079256;28;20437;-57
2024/01/27 09:03:01;;;;;;;1.95;0.60;;;4.40;99.90;;;;;;5081380;28;20495;-57
2024/01/27 09:05:28;;;;;;;2.20;0.80;;;4.40;99.90;;;;;;5086514;28;20884;-57
2024/01/27 09:07:55;;;;;;;1.95;0.75;;;4.50;42.60;;;;;;5084531;28;20428;-57
2024/01/27 09:10:22;;;;;;;1.90;0.80;;;4.50;99.90;;;;;;5086695;28;20476;-56
2024/01/27 09:12:50;;;;;;;2.33;1.00;;;4.40;99.90;;;;;;5080880;28;20448;-56
2024/01/27 09:15:17;;;;;;;4.00;0.98;;;4.40;1.00;;;;;;5077621;28;20853;-57
2024/01/27 09:17:45;;;;;;;2.92;0.80;;;4.30;12.90;;;;;;5074119;28;20444;-58
2024/01/27 09:20:13;;;;;;;2.95;0.90;;;4.20;1.00;;;;;;5077726;28;20454;-57
2024/01/27 09:22:41;;;;;;;3.25;0.90;;;4.20;1.00;;;;;;5076343;28;20652;-57
2024/01/27 09:25:09;;;;;;;1.50;0.90;;;4.20;1.00;;;;;;5080792;28;20892;-56
2024/01/27 09:27:36;;;;;;;3.22;0.98;;;4.20;99.90;;;;;;5078753;28;20443;-56
2024/01/27 09:30:04;;;;;;;2.28;1.30;;;4.30;1.00;;;;;;5081218;28;21068;-56
2024/01/27 09:32:31;;;;;;;4.00;1.00;;;4.30;1.00;;;;;;5079153;28;20995;-55
2024/01/27 09:35:00;;;;;;;4.40;0.90;;;4.20;99.90;;;;;;5078521;28;20848;-57
2024/01/27 09:37:27;;;;;;;5.78;1.00;;;4.30;99.90;;;;;;5079391;28;20435;-55
2024/01/27 09:39:54;;;;;;;4.43;1.10;;;4.40;1.00;;;;;;5082239;28;20447;-57
2024/01/27 09:42:22;;;;;;;3.50;0.90;;;4.20;1.00;;;;;;5078823;28;20495;-57
2024/01/27 09:44:50;;;;;;;2.83;0.90;;;4.30;99.90;;;;;;5080237;28;20441;-56
2024/01/27 09:47:19;;;;;;;1.75;0.90;;;4.40;99.90;;;;;;5078759;28;20941;-55
2024/01/27 09:49:47;;;;;;;1.87;0.90;;;4.60;1.00;;;;;;5082127;28;20430;-58
2024/01/27 09:52:16;;;;;;;1.80;0.75;;;4.60;99.90;;;;;;5079988;28;20797;-56
2024/01/27 09:54:43;;;;;;;1.60;0.97;;;4.60;33.40;;;;;;5078554;28;20429;-58
2024/01/27 09:57:11;;;;;;;4.50;0.80;;;4.60;99.90;;;;;;5082726;28;20521;-57
2024/01/27 09:59:44;;;;;;;2.33;0.80;;;4.70;99.90;;;;;;5077297;28;20480;-57
2024/01/27 10:02:13;;;;;;;1.17;0.73;;;4.70;1.00;;;;;;5077396;28;21091;-57
2024/01/27 10:04:41;;;;;;;1.90;1.10;;;4.70;1.00;;;;;;5082497;28;20444;-57
2024/01/27 10:07:09;;;;;;;2.80;1.00;;;4.80;1.00;;;;;;5069840;28;20439;-57
2024/01/27 10:09:37;;;;;;;2.88;0.80;;;4.80;1.00;;;;;;5077198;28;20494;-57
2024/01/27 10:12:05;;;;;;;1.33;0.80;;;4.90;1.00;;;;;;5078761;28;20450;-58
2024/01/27 10:14:40;;;;;;;1.88;0.80;;;5.00;1.00;;;;;;5075529;28;20440;-56
2024/01/27 10:17:10;;;;;;;2.15;0.90;;;5.20;1.00;;;;;;5077611;28;20445;-56
2024/01/27 10:19:37;;;;;;;3.92;1.00;;;5.20;1.00;;;;;;5079638;28;20774;-57
2024/01/27 10:22:04;;;;;;;4.20;1.00;;;5.30;1.00;;;;;;5080179;28;20417;-57
2024/01/27 10:24:35;;;;;;;2.10;0.80;;;5.30;1.00;;;;;;5086123;28;20513;-57
2024/01/27 10:27:09;;;;;;;1.50;0.70;;;5.30;1.00;;;;;;5082125;28;20516;-58
2024/01/27 10:29:37;;;;;;;4.10;0.85;;;5.30;1.00;;;;;;5081522;28;20441;-58
2024/01/27 10:32:11;;;;;;;2.75;0.80;;;5.30;1.00;;;;;;5077360;28;20439;-58
2024/01/27 10:34:39;;;;;;;1.80;0.70;;;5.40;99.90;;;;;;5078114;28;20728;-58
2024/01/27 10:37:06;;;;;;;2.20;0.50;;;5.50;99.90;;;;;;5081819;28;20532;-58
2024/01/27 10:39:33;;;;;;;4.00;0.70;;;5.60;1.00;;;;;;5086397;28;20442;-59
2024/01/27 10:42:07;;;;;;;1.92;0.73;;;5.60;1.00;;;;;;5080430;28;20880;-59
2024/01/27 10:44:37;;;;;;;1.13;0.70;;;5.60;1.00;;;;;;5084404;28;20457;-58
2024/01/27 10:47:06;;;;;;;2.08;0.70;;;5.70;99.90;;;;;;5083362;28;20531;-58
2024/01/27 10:49:38;;;;;;;2.75;0.70;;;5.80;1.00;;;;;;5080079;28;20481;-57
2024/01/27 10:52:12;;;;;;;1.02;0.60;;;5.90;99.90;;;;;;5076323;28;20423;-58
2024/01/27 10:54:41;;;;;;;3.10;0.70;;;5.90;99.90;;;;;;5088203;28;20442;-57
2024/01/27 10:57:12;;;;;;;1.63;0.70;;;6.00;99.90;;;;;;5086907;28;20434;-58
2024/01/27 10:59:42;;;;;;;2.53;0.70;;;6.10;1.00;;;;;;5084809;28;20521;-58
2024/01/27 11:02:14;;;;;;;2.70;0.70;;;6.30;99.90;;;;;;5085440;28;20860;-58
2024/01/27 11:04:43;;;;;;;2.63;0.70;;;6.40;99.90;;;;;;5086178;28;20807;-59
2024/01/27 11:07:11;;;;;;;2.50;0.63;;;6.50;1.00;;;;;;5076676;28;20448;-59
2024/01/27 11:09:39;;;;;;;1.40;0.70;;;6.50;1.00;;;;;;5089193;28;20934;-59
2024/01/27 11:12:09;;;;;;;2.30;0.80;;;6.50;1.00;;;;;;5082155;28;20421;-60
2024/01/27 11:14:37;;;;;;;2.60;0.70;;;6.70;40.20;;;;;;5084803;28;20475;-60
2024/01/27 11:17:04;;;;;;;1.10;0.70;;;6.70;1.00;;;;;;5088058;28;20437;-60
2024/01/27 11:19:34;;;;;;;3.20;0.90;;;6.80;1.00;;;;;;5087541;28;20437;-60
2024/01/27 11:22:02;;;;;;;2.28;0.90;;;6.60;1.00;;;;;;5086035;28;20441;-60
2024/01/27 11:24:29;;;;;;;2.40;1.00;;;6.70;1.00;;;;;;5088449;28;20881;-61
2024/01/27 11:27:02;;;;;;;6.00;0.90;;;6.80;1.00;;;;;;5088955;28;20488;-60
2024/01/27 11:29:32;;;;;;;2.70;0.70;;;6.80;1.00;;;;;;5086650;28;20493;-61
2024/01/27 11:32:02;;;;;;;2.28;0.70;;;6.80;99.90;;;;;;5088209;28;20437;-52
2024/01/27 11:34:30;;;;;;;2.05;0.80;;;6.90;33.30;;;;;;5081360;28;20525;-54
2024/01/27 11:36:57;;;;;;;3.00;1.00;;;6.90;57.90;;;;;;5084907;28;20461;-56
2024/01/27 11:39:25;;;;;;;2.35;0.70;;;6.90;17.60;;;;;;5086946;28;20506;-55
2024/01/27 11:41:52;;;;;;;2.90;0.70;;;6.90;1.00;;;;;;5085794;28;20827;-55
2024/01/27 11:44:21;;;;;;;3.45;0.88;;;6.90;1.00;;;;;;5089452;28;20507;-54
2024/01/27 11:46:50;;;;;;;3.33;0.80;;;7.00;1.00;;;;;;5087254;28;20426;-55
2024/01/27 11:49:18;;;;;;;2.10;1.00;;;7.10;93.80;;;;;;5076067;28;20438;-54
2024/01/27 11:51:45;;;;;;;2.20;0.88;;;7.00;1.00;;;;;;5084461;28;20514;-55
2024/01/27 11:54:12;;;;;;;2.05;0.80;;;7.10;1.00;;;;;;5085301;28;20820;-51
2024/01/27 11:56:40;;;;;;;3.67;0.90;;;7.10;1.00;;;;;;5085298;28;20433;-54
2024/01/27 11:59:07;;;;;;;1.80;1.00;;;7.10;1.00;;;;;;5087232;28;20478;-55
2024/01/27 12:01:34;;;;;;;2.33;0.90;;;7.20;99.90;;;;;;5090591;28;20781;-56
2024/01/27 12:04:03;;;;;;;2.30;0.90;;;7.20;1.00;;;;;;5084134;28;20450;-53
2024/01/27 12:06:30;;;;;;;1.95;0.80;;;7.20;1.00;;;;;;5080619;28;21044;-60
2024/01/27 12:08:58;;;;;;;1.90;0.80;;;7.20;1.00;;;;;;5083789;28;20438;-59
2024/01/27 12:11:25;;;;;;;2.60;0.90;;;7.20;1.00;;;;;;5088911;28;20436;-59
2024/01/27 12:13:53;;;;;;;6.30;2.20;;;7.20;1.00;;;;;;5079731;28;20514;-60
2024/01/27 12:16:23;;;;;;;2.13;0.80;;;7.20;1.00;;;;;;5073159;28;20416;-58
2024/01/27 12:18:53;;;;;;;1.90;0.70;;;7.20;1.00;;;;;;5077170;28;20443;-58
2024/01/27 12:21:21;;;;;;;1.50;0.70;;;7.20;1.00;;;;;;5076506;28;20546;-59
2024/01/27 12:23:55;;;;;;;2.37;0.60;;;7.20;1.00;;;;;;5079200;28;20442;-59
2024/01/27 12:26:23;;;;;;;2.37;0.90;;;7.20;1.00;;;;;;5082144;28;20831;-59
2024/01/27 12:28:50;;;;;;;2.30;0.60;;;7.20;99.90;;;;;;5075952;28;20426;-58
2024/01/27 12:31:18;;;;;;;1.75;0.82;;;7.20;99.90;;;;;;5075261;28;20672;-59
2024/01/27 12:33:53;;;;;;;2.20;0.60;;;7.20;99.90;;;;;;5077612;28;20547;-59
2024/01/27 12:36:22;;;;;;;2.20;0.70;;;7.20;99.90;;;;;;5085292;28;20421;-58
2024/01/27 12:38:55;;;;;;;3.03;0.70;;;7.30;1.00;;;;;;5082311;28;20479;-58
2024/01/27 12:41:22;;;;;;;2.38;0.90;;;7.30;99.90;;;;;;5083284;28;20433;-58
2024/01/27 12:43:49;;;;;;;2.40;0.80;;;7.30;1.00;;;;;;5086610;28;20491;-59
2024/01/27 12:46:16;;;;;;;2.58;0.70;;;7.40;99.90;;;;;;5082156;28;20782;-58
2024/01/27 12:48:44;;;;;;;1.15;0.70;;;7.50;99.90;;;;;;5083903;28;20556;-59
2024/01/27 12:51:11;;;;;;;2.30;0.70;;;7.50;99.90;;;;;;5084553;28;20445;-58
2024/01/27 12:53:41;;;;;;;1.58;0.80;;;7.60;99.90;;;;;;5085469;28;20490;-58
2024/01/27 12:56:09;;;;;;;1.80;0.60;;;7.50;99.90;;;;;;5085410;28;20511;-59
2024/01/27 12:58:36;;;;;;;1.98;0.70;;;7.60;99.90;;;;;;5079068;28;20871;-59
2024/01/27 13:01:03;;;;;;;2.53;0.60;;;7.40;99.90;;;;;;5073960;28;20438;-59
2024/01/27 13:03:30;;;;;;;1.60;0.75;;;7.40;99.90;;;;;;5080163;28;20437;-59
2024/01/27 13:05:58;;;;;;;2.50;0.80;;;7.50;99.90;;;;;;5072656;28;20518;-59
2024/01/27 13:08:25;;;;;;;1.38;0.60;;;7.50;99.90;;;;;;5077327;28;20437;-59